createdAt,value
2018-03-20T00:02:21.250Z,6.60
2018-03-20T00:04:48.775Z,6.57
2018-03-20T00:07:17.759Z,5.80
2018-03-20T00:09:45.714Z,5.70
2018-03-20T00:12:13.241Z,6.17
2018-03-20T00:14:40.974Z,6.67
2018-03-20T00:17:09.929Z,5.60
2018-03-20T00:19:37.476Z,6.07
2018-03-20T00:22:05.920Z,6.20
2018-03-20T00:24:34.044Z,6.23
2018-03-20T00:27:01.574Z,6.03
2018-03-20T00:29:29.080Z,5.87
2018-03-20T00:31:56.609Z,6.00
2018-03-20T00:34:24.113Z,5.13
2018-03-20T00:36:52.532Z,6.30
2018-03-20T00:39:20.116Z,5.83
2018-03-20T00:41:47.647Z,6.27
2018-03-20T00:44:15.621Z,5.40
2018-03-20T00:46:43.138Z,5.53
2018-03-20T00:49:11.435Z,6.20
2018-03-20T00:51:38.943Z,5.80
2018-03-20T00:54:06.638Z,5.77
2018-03-20T00:56:38.446Z,5.67
2018-03-20T00:59:05.985Z,5.53
2018-03-20T01:01:33.494Z,5.50
2018-03-20T01:04:01.490Z,5.20
2018-03-20T01:06:29.908Z,5.23
2018-03-20T01:08:57.426Z,5.50
2018-03-20T01:11:25.780Z,5.17
2018-03-20T01:13:54.028Z,5.70
2018-03-20T01:16:21.550Z,5.50
2018-03-20T01:18:50.470Z,5.50
2018-03-20T01:21:21.820Z,6.03
2018-03-20T01:23:49.312Z,5.70
2018-03-20T01:26:16.850Z,5.50
2018-03-20T01:28:44.369Z,5.43
2018-03-20T01:31:16.629Z,4.77
2018-03-20T01:33:44.766Z,5.63
2018-03-20T01:36:12.370Z,5.10
2018-03-20T01:38:40.659Z,5.77
2018-03-20T01:41:08.197Z,5.60
2018-03-20T01:43:36.488Z,5.03
2018-03-20T01:46:04.761Z,5.43
2018-03-20T01:48:33.148Z,4.83
2018-03-20T01:51:00.784Z,4.73
2018-03-20T01:53:28.390Z,5.13
2018-03-20T01:55:59.807Z,4.97
2018-03-20T01:58:28.099Z,5.13
2018-03-20T02:00:55.636Z,5.80
2018-03-20T02:03:23.917Z,4.73
2018-03-20T02:05:52.470Z,5.23
2018-03-20T02:08:19.982Z,5.43
2018-03-20T02:10:47.514Z,5.60
2018-03-20T02:13:15.822Z,6.00
2018-03-20T02:15:43.467Z,4.80
2018-03-20T02:18:11.769Z,4.97
2018-03-20T02:20:39.282Z,4.90
2018-03-20T02:23:06.782Z,5.37
2018-03-20T02:25:34.298Z,5.40
2018-03-20T02:28:01.808Z,5.90
2018-03-20T02:30:29.335Z,5.23
2018-03-20T02:32:57.651Z,5.37
2018-03-20T02:35:25.187Z,6.10
2018-03-20T02:37:52.733Z,5.53
2018-03-20T02:40:21.724Z,5.50
2018-03-20T02:42:50.033Z,5.87
2018-03-20T02:45:17.544Z,5.53
2018-03-20T02:47:45.060Z,6.87
2018-03-20T02:50:17.041Z,6.17
2018-03-20T02:52:44.589Z,6.40
2018-03-20T02:55:12.110Z,6.30
2018-03-20T02:57:44.262Z,6.83
2018-03-20T03:00:13.771Z,6.10
2018-03-20T03:02:42.046Z,6.37
2018-03-20T03:05:10.421Z,6.30
2018-03-20T03:07:38.982Z,6.33
2018-03-20T03:10:06.527Z,6.23
2018-03-20T03:12:34.815Z,6.37
2018-03-20T03:15:02.319Z,6.17
2018-03-20T03:17:30.618Z,6.43
2018-03-20T03:19:58.126Z,6.57
2018-03-20T03:22:25.679Z,7.43
2018-03-20T03:24:53.511Z,6.73
2018-03-20T03:27:21.043Z,6.40
2018-03-20T03:29:49.349Z,6.50
2018-03-20T03:32:17.729Z,7.07
2018-03-20T03:34:45.249Z,6.47
2018-03-20T03:37:14.111Z,7.10
2018-03-20T03:39:41.643Z,6.00
2018-03-20T03:42:09.710Z,6.17
2018-03-20T03:44:37.232Z,6.27
2018-03-20T03:47:05.520Z,6.67
2018-03-20T03:49:33.826Z,7.60
2018-03-20T03:52:01.333Z,7.87
2018-03-20T03:54:29.614Z,7.93
2018-03-20T03:56:57.925Z,8.67
2018-03-20T03:59:26.225Z,10.07
2018-03-20T04:01:54.717Z,10.77
2018-03-20T04:04:22.229Z,10.73
2018-03-20T04:06:49.756Z,12.43
2018-03-20T04:09:17.265Z,11.57
2018-03-20T04:11:45.554Z,10.27
2018-03-20T04:14:13.085Z,11.33
2018-03-20T04:16:40.597Z,10.77
2018-03-20T04:19:08.902Z,11.63
2018-03-20T04:21:37.211Z,10.53
2018-03-20T04:24:05.480Z,10.97
2018-03-20T04:26:33.957Z,10.53
2018-03-20T04:29:01.474Z,11.00
2018-03-20T04:31:28.992Z,10.13
2018-03-20T04:33:56.512Z,10.87
2018-03-20T04:36:29.310Z,12.10
2018-03-20T04:39:05.086Z,11.90
2018-03-20T04:41:32.621Z,12.03
2018-03-20T04:44:00.908Z,11.30
2018-03-20T04:46:28.438Z,11.43
2018-03-20T04:48:56.727Z,11.93
2018-03-20T04:51:25.005Z,12.63
2018-03-20T04:53:53.297Z,13.10
2018-03-20T04:56:20.935Z,13.37
2018-03-20T04:58:49.696Z,12.97
2018-03-20T05:01:17.975Z,13.80
2018-03-20T05:03:45.500Z,13.10
2018-03-20T05:06:13.067Z,14.87
2018-03-20T05:08:40.642Z,12.70
2018-03-20T05:11:08.304Z,13.70
2018-03-20T05:26:36.723Z,12.70
2018-03-20T05:29:05.010Z,13.37
2018-03-20T05:31:36.564Z,13.80
2018-03-20T05:34:08.604Z,13.57
2018-03-20T05:36:36.978Z,13.37
2018-03-20T05:39:04.740Z,13.47
2018-03-20T05:41:32.280Z,13.30
2018-03-20T05:43:59.798Z,12.47
2018-03-20T05:46:33.219Z,11.97
2018-03-20T05:49:03.556Z,13.10
2018-03-20T05:51:37.418Z,12.70
2018-03-20T05:54:06.457Z,12.53
2018-03-20T05:56:33.979Z,12.90
2018-03-20T05:59:01.498Z,14.57
2018-03-20T06:01:29.585Z,13.73
2018-03-20T06:03:57.572Z,14.70
2018-03-20T06:06:26.194Z,13.63
2018-03-20T06:08:58.224Z,13.33
2018-03-20T06:11:26.910Z,15.50
2018-03-20T06:13:54.464Z,15.17
2018-03-20T06:16:22.850Z,15.57
2018-03-20T06:18:51.141Z,15.10
2018-03-20T06:21:19.312Z,14.77
2018-03-20T06:23:47.362Z,15.27
2018-03-20T06:26:15.659Z,15.50
2018-03-20T06:28:43.171Z,15.73
2018-03-20T06:31:11.186Z,15.03
2018-03-20T06:33:38.726Z,15.63
2018-03-20T06:36:07.006Z,17.00
2018-03-20T06:38:35.316Z,16.43
2018-03-20T06:41:02.832Z,15.87
2018-03-20T06:43:30.793Z,17.50
2018-03-20T06:45:59.743Z,17.90
2018-03-20T06:48:31.253Z,16.40
2018-03-20T06:50:59.578Z,19.77
2018-03-20T06:53:31.258Z,18.50
2018-03-20T06:55:59.576Z,20.83
2018-03-20T06:58:36.440Z,22.20
2018-03-20T07:01:08.016Z,23.57
2018-03-20T07:03:35.529Z,25.00
2018-03-20T07:06:03.050Z,22.37
2018-03-20T07:08:34.349Z,23.60
2018-03-20T07:11:01.873Z,21.63
2018-03-20T07:13:29.397Z,22.70
2018-03-20T07:16:02.202Z,21.77
2018-03-20T07:18:29.705Z,18.60
2018-03-20T07:20:57.305Z,17.03
2018-03-20T07:23:24.815Z,14.23
2018-03-20T07:25:52.320Z,13.63
2018-03-20T07:28:20.655Z,13.93
2018-03-20T07:30:48.194Z,13.30
2018-03-20T07:33:15.720Z,13.70
2018-03-20T07:35:43.654Z,12.53
2018-03-20T07:38:11.204Z,11.70
2018-03-20T07:40:39.430Z,11.83
2018-03-20T07:43:07.897Z,11.43
2018-03-20T07:45:36.180Z,12.57
2018-03-20T07:48:04.457Z,11.17
2018-03-20T07:50:31.982Z,10.77
2018-03-20T07:52:59.503Z,11.67
2018-03-20T07:55:28.738Z,11.70
2018-03-20T07:57:56.262Z,11.13
2018-03-20T08:00:23.785Z,11.43
2018-03-20T08:02:52.408Z,11.07
2018-03-20T08:05:24.789Z,9.73
2018-03-20T08:07:52.372Z,9.40
2018-03-20T08:10:19.877Z,9.10
2018-03-20T08:12:47.494Z,10.40
2018-03-20T08:15:15.070Z,9.50
2018-03-20T08:17:43.930Z,9.43
2018-03-20T08:20:11.453Z,8.23
2018-03-20T08:22:38.987Z,8.83
2018-03-20T08:25:11.513Z,8.77
2018-03-20T08:27:39.019Z,8.53
2018-03-20T08:30:07.298Z,7.80
2018-03-20T08:32:35.569Z,7.90
2018-03-20T08:35:03.869Z,7.53
2018-03-20T08:37:32.879Z,5.13
2018-03-20T08:40:00.389Z,5.00
2018-03-20T08:42:27.918Z,4.70
2018-03-20T08:44:55.437Z,4.27
2018-03-20T08:47:22.949Z,4.20
2018-03-20T08:49:50.975Z,4.43
2018-03-20T08:52:18.516Z,3.90
2018-03-20T08:54:46.795Z,4.13
2018-03-20T08:57:19.030Z,3.93
2018-03-20T08:59:50.518Z,3.77
2018-03-20T09:02:23.578Z,3.50
2018-03-20T09:04:51.095Z,3.13
2018-03-20T09:07:18.597Z,3.17
2018-03-20T09:09:46.143Z,3.10
2018-03-20T09:12:13.927Z,2.70
2018-03-20T09:14:41.496Z,2.90
2018-03-20T09:17:09.289Z,2.70
2018-03-20T09:19:36.874Z,2.90
2018-03-20T09:22:04.385Z,2.53
2018-03-20T09:24:34.722Z,3.17
2018-03-20T09:27:02.985Z,2.23
2018-03-20T09:29:31.740Z,2.00
2018-03-20T09:31:59.974Z,2.30
2018-03-20T09:39:50.743Z,2.20
2018-03-20T09:42:19.392Z,2.53
2018-03-20T09:44:49.259Z,2.20
2018-03-20T09:47:21.600Z,2.07
2018-03-20T09:49:49.109Z,2.50
2018-03-20T09:52:21.486Z,1.97
2018-03-20T09:54:49.802Z,2.03
2018-03-20T09:57:18.368Z,1.90
2018-03-20T09:59:47.255Z,1.80
2018-03-20T10:02:15.522Z,1.83
2018-03-20T10:04:43.838Z,1.60
2018-03-20T10:07:12.104Z,1.80
2018-03-20T10:09:39.632Z,1.67
2018-03-20T10:12:07.173Z,1.50
2018-03-20T10:14:36.363Z,1.60
2018-03-20T10:17:03.908Z,1.70
2018-03-20T10:22:27.166Z,1.67
2018-03-20T10:24:54.681Z,1.63
2018-03-20T10:27:22.236Z,1.70
2018-03-20T10:29:49.773Z,1.70
2018-03-20T10:32:17.340Z,2.00
2018-03-20T10:34:44.869Z,1.60
2018-03-20T10:37:12.396Z,2.10
2018-03-20T10:39:49.429Z,1.40
2018-03-20T10:42:17.485Z,1.67
2018-03-20T10:57:45.083Z,1.60
2018-03-20T11:00:12.610Z,1.70
2018-03-20T11:02:45.800Z,1.30
2018-03-20T11:05:13.320Z,1.53
2018-03-20T11:07:41.609Z,1.90
2018-03-20T11:10:09.137Z,2.30
2018-03-20T11:12:36.657Z,2.43
2018-03-20T11:15:04.172Z,2.00
2018-03-20T11:17:32.464Z,1.80
2018-03-20T11:20:00.673Z,1.97
2018-03-20T11:22:29.131Z,1.77
2018-03-20T11:24:56.660Z,1.90
2018-03-20T11:27:28.945Z,1.50
2018-03-20T11:29:56.517Z,1.70
2018-03-20T11:32:24.802Z,2.20
2018-03-20T11:34:52.577Z,1.50
2018-03-20T11:37:20.101Z,1.83
2018-03-20T11:39:48.453Z,1.60
2018-03-20T11:42:16.076Z,1.70
2018-03-20T11:44:46.609Z,1.27
2018-03-20T11:47:14.127Z,1.23
2018-03-20T11:49:42.445Z,1.40
2018-03-20T11:52:09.960Z,1.73
2018-03-20T11:54:38.424Z,1.53
2018-03-20T11:57:07.577Z,1.30
2018-03-20T11:59:35.117Z,1.33
2018-03-20T12:02:02.626Z,1.30
2018-03-20T12:04:34.107Z,1.33
2018-03-20T12:07:02.452Z,1.53
2018-03-20T12:09:50.648Z,1.42
2018-03-20T12:12:18.171Z,1.58
2018-03-20T12:14:45.751Z,1.20
2018-03-20T12:17:14.046Z,1.60
2018-03-20T12:19:45.451Z,1.30
2018-03-20T12:22:12.986Z,1.23
2018-03-20T12:24:40.504Z,0.80
2018-03-20T12:27:09.532Z,1.20
2018-03-20T12:29:37.060Z,1.17
2018-03-20T12:32:04.580Z,1.20
2018-03-20T12:34:33.128Z,1.10
2018-03-20T12:37:00.649Z,1.10
2018-03-20T12:39:28.967Z,1.20
2018-03-20T12:41:56.486Z,1.50
2018-03-20T12:44:24.798Z,1.10
2018-03-20T12:46:56.480Z,1.50
2018-03-20T12:49:24.114Z,1.35
2018-03-20T12:51:52.395Z,1.10
2018-03-20T12:54:20.312Z,1.10
2018-03-20T12:56:48.463Z,1.10
2018-03-20T12:59:15.970Z,1.33
2018-03-20T13:01:44.863Z,1.23
2018-03-20T13:04:19.516Z,1.20
2018-03-20T13:06:47.073Z,1.25
2018-03-20T13:09:14.595Z,1.25
2018-03-20T13:11:42.896Z,1.40
2018-03-20T13:14:10.424Z,1.33
2018-03-20T13:16:38.504Z,1.20
2018-03-20T13:19:06.034Z,0.90
2018-03-20T13:21:33.551Z,1.33
2018-03-20T13:24:01.146Z,1.30
2018-03-20T13:26:29.358Z,1.00
2018-03-20T13:28:57.647Z,1.30
2018-03-20T13:31:25.948Z,2.12
2018-03-20T13:33:53.485Z,1.42
2018-03-20T13:36:26.063Z,1.10
2018-03-20T13:38:53.647Z,1.17
2018-03-20T13:41:21.180Z,1.33
2018-03-20T13:43:49.455Z,1.10
2018-03-20T13:46:18.475Z,1.20
2018-03-20T13:48:45.980Z,1.00
2018-03-20T13:51:13.505Z,1.10
2018-03-20T13:53:41.039Z,1.08
2018-03-20T13:56:17.432Z,1.10
2018-03-20T13:58:45.295Z,0.98
2018-03-20T14:01:12.792Z,0.90
2018-03-20T14:03:40.317Z,1.10
2018-03-20T14:06:12.251Z,1.15
2018-03-20T14:08:39.960Z,1.23
2018-03-20T14:11:08.068Z,1.60
2018-03-20T14:13:36.510Z,1.90
2018-03-20T14:16:04.058Z,1.75
2018-03-20T14:18:31.593Z,1.40
2018-03-20T14:20:59.186Z,1.27
2018-03-20T14:23:26.757Z,2.10
2018-03-20T14:25:58.854Z,1.37
2018-03-20T14:28:26.983Z,1.67
2018-03-20T14:30:54.548Z,1.43
2018-03-20T14:33:25.964Z,1.17
2018-03-20T14:35:53.591Z,1.60
2018-03-20T14:38:21.895Z,1.70
2018-03-20T14:40:50.195Z,1.47
2018-03-20T14:43:17.729Z,1.33
2018-03-20T14:45:46.849Z,1.07
2018-03-20T14:48:18.723Z,1.10
2018-03-20T14:50:48.010Z,1.00
2018-03-20T14:53:15.551Z,1.05
2018-03-20T14:55:43.657Z,1.10
2018-03-20T14:58:11.222Z,1.23
2018-03-20T15:00:38.745Z,1.40
2018-03-20T15:03:06.264Z,1.65
2018-03-20T15:05:33.785Z,1.65
2018-03-20T15:08:01.306Z,2.40
2018-03-20T15:10:29.660Z,2.60
2018-03-20T15:12:57.188Z,2.53
2018-03-20T15:15:24.866Z,1.60
2018-03-20T15:17:52.425Z,1.20
2018-03-20T15:20:20.085Z,0.90
2018-03-20T15:22:48.914Z,0.88
2018-03-20T15:25:17.205Z,1.02
2018-03-20T15:27:45.505Z,0.90
2018-03-20T15:30:13.584Z,1.00
2018-03-20T15:32:41.113Z,0.90
2018-03-20T15:35:09.421Z,1.10
2018-03-20T15:37:36.934Z,1.37
2018-03-20T15:40:08.282Z,1.40
2018-03-20T15:42:35.886Z,1.20
2018-03-20T15:45:03.898Z,1.13
2018-03-20T15:47:31.424Z,0.90
2018-03-20T15:49:59.703Z,1.23
2018-03-20T15:52:27.219Z,1.10
2018-03-20T15:54:55.517Z,1.20
2018-03-20T15:57:23.044Z,1.17
2018-03-20T15:59:50.561Z,1.40
2018-03-20T16:02:18.127Z,1.00
2018-03-20T16:04:50.047Z,1.03
2018-03-20T16:07:18.350Z,1.00
2018-03-20T16:09:46.490Z,1.37
2018-03-20T16:12:14.805Z,1.20
2018-03-20T16:14:42.858Z,1.17
2018-03-20T16:17:10.414Z,1.10
2018-03-20T16:19:37.966Z,0.87
2018-03-20T16:22:06.367Z,0.97
2018-03-20T16:24:37.825Z,0.93
2018-03-20T16:27:05.458Z,1.00
2018-03-20T16:29:33.064Z,1.60
2018-03-20T16:32:04.690Z,1.50
2018-03-20T16:34:32.225Z,0.80
2018-03-20T16:37:01.054Z,0.80
2018-03-20T16:39:28.573Z,1.00
2018-03-20T16:41:57.557Z,0.90
2018-03-20T16:44:25.327Z,1.20
2018-03-20T16:46:53.392Z,1.20
2018-03-20T16:49:20.914Z,1.13
2018-03-20T16:51:48.423Z,1.30
2018-03-20T16:54:16.735Z,1.50
2018-03-20T16:56:44.267Z,1.30
2018-03-20T16:59:13.144Z,1.40
2018-03-20T17:01:42.132Z,2.00
2018-03-20T17:04:10.589Z,1.70
2018-03-20T17:06:38.100Z,1.43
2018-03-20T17:09:06.369Z,2.83
2018-03-20T17:11:34.657Z,1.63
2018-03-20T17:14:02.200Z,1.53
2018-03-20T17:16:30.824Z,1.60
2018-03-20T17:18:58.340Z,1.70
2018-03-20T17:21:26.664Z,1.60
2018-03-20T17:23:58.825Z,1.53
2018-03-20T17:26:26.344Z,2.73
2018-03-20T17:29:02.753Z,3.07
2018-03-20T17:31:30.270Z,2.53
2018-03-20T17:34:02.918Z,2.80
2018-03-20T17:36:30.426Z,2.17
2018-03-20T17:38:59.077Z,2.27
2018-03-20T17:41:28.430Z,1.70
2018-03-20T17:43:56.102Z,2.90
2018-03-20T17:46:23.617Z,1.20
2018-03-20T17:48:54.947Z,1.90
2018-03-20T17:51:22.470Z,1.20
2018-03-20T17:53:50.320Z,1.30
2018-03-20T17:56:17.851Z,1.50
2018-03-20T17:58:45.486Z,1.40
2018-03-20T18:01:13.129Z,1.57
2018-03-20T18:03:40.683Z,1.53
2018-03-20T18:06:08.280Z,1.30
2018-03-20T18:08:36.613Z,1.50
2018-03-20T18:11:04.123Z,1.30
2018-03-20T18:13:35.727Z,1.40
2018-03-20T18:16:03.238Z,1.40
2018-03-20T18:18:31.454Z,1.50
2018-03-20T18:20:58.918Z,1.47
2018-03-20T18:23:26.449Z,1.70
2018-03-20T18:25:54.724Z,2.73
2018-03-20T18:28:23.515Z,2.77
2018-03-20T18:30:51.800Z,2.60
2018-03-20T18:33:23.230Z,3.50
2018-03-20T18:35:54.831Z,4.60
2018-03-20T18:38:22.350Z,5.13
2018-03-20T18:40:51.022Z,4.27
2018-03-20T18:43:18.994Z,3.93
2018-03-20T18:45:46.515Z,3.87
2018-03-20T18:48:14.038Z,3.60
2018-03-20T18:50:43.110Z,3.30
2018-03-20T18:53:11.098Z,4.30
2018-03-20T18:55:39.402Z,6.10
2018-03-20T18:58:06.939Z,6.53
2018-03-20T19:00:35.753Z,5.40
2018-03-20T19:03:03.575Z,4.70
2018-03-20T19:05:31.091Z,4.03
2018-03-20T19:08:02.782Z,3.20
2018-03-20T19:10:30.316Z,7.10
2018-03-20T19:12:57.824Z,2.17
2018-03-20T19:15:25.363Z,1.87
2018-03-20T19:17:53.368Z,1.70
2018-03-20T19:20:25.057Z,1.93
2018-03-20T19:22:56.998Z,1.50
2018-03-20T19:25:24.526Z,1.70
2018-03-20T19:27:52.940Z,1.87
2018-03-20T19:30:20.575Z,1.50
2018-03-20T19:32:48.185Z,1.70
2018-03-20T19:35:15.716Z,1.60
2018-03-20T19:37:47.390Z,1.57
2018-03-20T19:40:14.937Z,1.63
2018-03-20T19:42:42.492Z,1.97
2018-03-20T19:45:11.054Z,1.80
2018-03-20T19:47:39.335Z,1.87
2018-03-20T19:50:08.913Z,1.67
2018-03-20T19:52:36.431Z,1.80
2018-03-20T19:55:04.968Z,2.10
2018-03-20T19:57:33.238Z,2.20
2018-03-20T20:00:00.778Z,1.80
2018-03-20T20:02:28.596Z,2.30
2018-03-20T20:04:56.688Z,2.90
2018-03-20T20:07:24.215Z,2.77
2018-03-20T20:09:55.809Z,2.67
2018-03-20T20:12:23.341Z,2.73
2018-03-20T20:14:54.769Z,2.50
2018-03-20T20:17:23.054Z,2.50
2018-03-20T20:19:50.614Z,2.27
2018-03-20T20:22:19.003Z,2.00
2018-03-20T20:24:47.277Z,2.20
2018-03-20T20:27:16.080Z,2.43
2018-03-20T20:29:43.616Z,2.20
2018-03-20T20:32:11.903Z,2.20
2018-03-20T20:34:40.285Z,3.53
2018-03-20T20:37:07.790Z,2.50
2018-03-20T20:39:35.320Z,2.50
2018-03-20T20:42:02.845Z,2.50
2018-03-20T20:57:30.418Z,2.33
2018-03-20T20:59:57.991Z,2.33
2018-03-20T21:02:25.525Z,2.13
2018-03-20T21:04:53.823Z,2.23
2018-03-20T21:07:21.380Z,1.90
2018-03-20T21:09:49.679Z,2.10
2018-03-20T21:12:17.206Z,1.97
2018-03-20T21:14:45.608Z,2.00
2018-03-20T21:17:13.126Z,2.43
2018-03-20T21:19:41.440Z,2.60
2018-03-20T21:22:08.937Z,2.30
2018-03-20T21:24:36.462Z,2.10
2018-03-20T21:27:04.874Z,2.40
2018-03-20T21:29:32.423Z,2.27
2018-03-20T21:31:59.921Z,2.43
2018-03-20T21:34:28.199Z,2.23
2018-03-20T21:36:56.476Z,2.23
2018-03-20T21:39:24.764Z,2.40
2018-03-20T21:41:56.846Z,2.37
2018-03-20T21:44:24.368Z,2.57
2018-03-20T21:46:52.715Z,2.30
2018-03-20T21:49:20.222Z,2.23
2018-03-20T21:51:48.549Z,2.10
2018-03-20T21:54:16.086Z,2.23
2018-03-20T21:56:43.616Z,2.67
2018-03-20T21:59:12.143Z,2.23
2018-03-20T22:01:40.925Z,3.13
2018-03-20T22:04:08.442Z,2.50
2018-03-20T22:06:36.715Z,3.10
2018-03-20T22:09:04.270Z,2.87
2018-03-20T22:11:32.224Z,2.80
2018-03-20T22:13:59.789Z,2.83
2018-03-20T22:16:27.329Z,2.83
2018-03-20T22:18:55.176Z,2.77
2018-03-20T22:21:22.717Z,3.10
2018-03-20T22:23:50.227Z,2.80
2018-03-20T22:26:17.758Z,3.07
2018-03-20T22:28:46.339Z,3.00
2018-03-20T22:31:13.892Z,2.90
2018-03-20T22:33:41.447Z,3.20
2018-03-20T22:49:13.993Z,2.90
2018-03-20T22:51:42.281Z,2.90
2018-03-20T22:54:09.812Z,2.40
2018-03-20T22:56:41.289Z,2.83
2018-03-20T22:59:08.817Z,2.90
2018-03-20T23:01:40.277Z,2.90
2018-03-20T23:04:07.794Z,2.53
2018-03-20T23:06:35.649Z,3.43
2018-03-20T23:09:03.166Z,3.00
2018-03-20T23:11:31.896Z,3.23
2018-03-20T23:13:59.388Z,2.50
2018-03-20T23:16:26.918Z,3.33
2018-03-20T23:18:54.432Z,2.90
2018-03-20T23:21:22.718Z,2.87
2018-03-20T23:23:51.003Z,3.57
2018-03-20T23:26:18.581Z,2.80
2018-03-20T23:28:46.204Z,2.77
2018-03-20T23:31:13.724Z,2.90
2018-03-20T23:33:41.831Z,2.57
2018-03-20T23:36:09.352Z,2.57
2018-03-20T23:38:36.868Z,3.17
2018-03-20T23:41:05.171Z,2.93
2018-03-20T23:43:32.677Z,3.40
2018-03-20T23:46:00.234Z,3.60
2018-03-20T23:48:27.770Z,3.10
2018-03-20T23:50:55.372Z,3.77
2018-03-20T23:53:22.896Z,3.47
2018-03-20T23:55:50.421Z,3.13
2018-03-20T23:58:17.931Z,3.00
